Time;durP1;ratioP1;P1;durP2;ratioP2;P2;SDS_P1;SDS_P2;PMS_P1;PMS_P2;Temp;Humidity;BMP_temperature;BMP_pressure;BME280_temperature;BME280_humidity;BME280_pressure;Samples;Min_cycle;Max_cycle;Signal;HPM_P1;HPM_P2
2021/12/11 00:01:39;;;;;;;;;;;2.70;99.90;;;1.61;100.00;94280.59;10403818;28;1876;-74
2021/12/11 00:06:42;;;;;;;;;;;2.70;99.90;;;1.65;100.00;94280.84;10399711;28;1870;-74
2021/12/11 00:11:45;;;;;;;;;;;2.70;99.90;;;1.63;100.00;94286.41;10401165;28;1914;-73
2021/12/11 00:16:48;;;;;;;;;;;2.70;99.90;;;1.65;100.00;94277.41;10399178;28;1998;-73
2021/12/11 00:21:50;;;;;;;;;;;2.70;99.90;;;1.61;100.00;94293.03;10393813;28;1891;-72
2021/12/11 00:26:53;;;;;;;;;;;2.70;99.90;;;1.58;100.00;94315.50;10392629;28;1823;-74
2021/12/11 00:31:56;;;;;;;;;;;2.70;99.90;;;1.53;100.00;94312.03;10401277;28;1948;-74
2021/12/11 00:36:59;;;;;;;;;;;2.60;99.90;;;1.45;100.00;94323.88;10400710;28;1789;-74
2021/12/11 00:42:02;;;;;;;;;;;2.50;99.90;;;1.51;100.00;94322.88;10408970;28;1826;-74
2021/12/11 00:47:05;;;;;;;;;;;2.60;99.90;;;1.65;100.00;94346.28;10407352;28;1887;-74
2021/12/11 00:52:08;;;;;;;;;;;2.60;99.90;;;1.69;100.00;94347.38;10408544;28;1955;-74
2021/12/11 00:57:11;;;;;;;;;;;2.70;99.90;;;1.68;100.00;94361.69;10409128;28;1824;-74
2021/12/11 01:02:14;;;;;;;;;;;2.70;99.90;;;1.69;100.00;94363.28;10408364;28;2191;-74
2021/12/11 01:07:19;;;;;;;;;;;2.70;99.90;;;1.67;100.00;94373.34;10405255;28;1830;-74
2021/12/11 01:12:22;;;;;;;;;;;2.80;99.90;;;1.63;100.00;94397.66;10402060;28;1918;-74
2021/12/11 01:17:25;;;;;;;;;;;2.70;99.90;;;1.75;100.00;94402.81;10399362;28;1952;-73
2021/12/11 01:22:33;;;;;;;;;;;2.70;99.90;;;1.77;100.00;94415.78;10405046;28;1882;-73
2021/12/11 01:27:36;;;;;;;;;;;2.80;99.90;;;1.70;100.00;94425.78;10418742;28;1842;-73
2021/12/11 01:32:39;;;;;;;;;;;2.80;99.90;;;1.72;100.00;94421.88;10415833;28;1986;-74
2021/12/11 01:37:42;;;;;;;;;;;2.80;99.90;;;1.67;100.00;94429.75;10415020;28;1846;-74
2021/12/11 01:42:46;;;;;;;;;;;2.80;99.90;;;1.64;100.00;94443.50;10402534;28;2127;-73
2021/12/11 01:47:49;;;;;;;;;;;2.70;99.90;;;1.63;100.00;94445.34;10412686;28;1663;-73
2021/12/11 01:52:52;;;;;;;;;;;2.80;99.90;;;1.63;100.00;94453.28;10400566;28;2241;-74
2021/12/11 01:57:56;;;;;;;;;;;2.70;99.90;;;1.70;100.00;94452.28;10407671;28;2400;-73
2021/12/11 02:02:59;;;;;;;;;;;2.70;99.90;;;1.71;100.00;94453.88;10408517;28;1879;-73
2021/12/11 02:08:02;;;;;;;;;;;2.80;99.90;;;1.70;100.00;94471.63;10406259;28;2158;-72
2021/12/11 02:13:35;;;;;;;;;;;2.80;99.90;;;1.70;100.00;94470.84;10408094;28;1989;-73
2021/12/11 02:18:44;;;;;;;;;;;2.80;99.90;;;1.72;100.00;94471.38;10406464;28;1961;-73
2021/12/11 02:23:47;;;;;;;;;;;2.80;99.90;;;1.68;100.00;94465.00;10406273;28;1852;-73
2021/12/11 02:29:10;;;;;;;;;;;2.80;99.90;;;1.70;100.00;94478.78;10399376;28;2123;-73
2021/12/11 02:34:34;;;;;;;;;;;2.70;99.90;;;1.64;100.00;94483.22;10397825;28;2324;-73
2021/12/11 02:39:37;;;;;;;;;;;2.70;99.90;;;1.66;100.00;94494.38;10405211;28;2240;-73
2021/12/11 02:44:40;;;;;;;;;;;2.70;99.90;;;1.66;100.00;94496.25;10402874;28;1965;-75
2021/12/11 02:49:42;;;;;;;;;;;2.80;99.90;;;1.66;100.00;94509.47;10408054;28;2020;-72
2021/12/11 02:54:46;;;;;;;;;;;2.80;99.90;;;1.64;100.00;94517.66;10402068;28;1929;-72
2021/12/11 02:59:49;;;;;;;;;;;2.70;99.90;;;1.68;100.00;94523.28;10408570;28;1897;-73
2021/12/11 03:04:55;;;;;;;;;;;2.80;99.90;;;1.71;100.00;94528.06;10405481;28;1949;-73
2021/12/11 03:09:58;;;;;;;;;;;2.80;99.90;;;1.77;100.00;94537.66;10407686;28;2127;-73
2021/12/11 03:15:01;;;;;;;;;;;2.70;99.90;;;1.71;100.00;94541.31;10397118;28;2144;-72
2021/12/11 03:20:05;;;;;;;;;;;2.80;99.90;;;1.77;100.00;94542.97;10420431;28;1833;-73
2021/12/11 03:25:08;;;;;;;;;;;2.80;99.90;;;1.68;100.00;94555.06;10402606;28;1879;-74
2021/12/11 03:30:11;;;;;;;;;;;2.80;99.90;;;1.71;100.00;94560.66;10406490;28;1928;-73
2021/12/11 03:35:15;;;;;;;;;;;2.80;99.90;;;1.74;100.00;94569.97;10404152;28;1929;-73
2021/12/11 03:40:18;;;;;;;;;;;2.90;99.90;;;1.74;100.00;94588.50;10396575;28;2018;-73
2021/12/11 03:45:21;;;;;;;;;;;2.80;99.90;;;1.75;100.00;94587.47;10405990;28;1774;-73
2021/12/11 03:50:25;;;;;;;;;;;2.50;99.90;;;1.79;100.00;94599.19;10409870;28;1922;-73
2021/12/11 03:55:29;;;;;;;;;;;2.70;99.90;;;1.70;100.00;94612.03;10400933;28;1859;-73
2021/12/11 04:00:31;;;;;;;;;;;2.70;99.90;;;1.60;100.00;94606.63;10405617;28;1874;-73
2021/12/11 04:05:35;;;;;;;;;;;2.70;99.90;;;1.49;100.00;94620.78;10401520;28;1781;-73
2021/12/11 04:10:38;;;;;;;;;;;2.60;99.90;;;1.49;100.00;94632.16;10412357;28;1914;-73
2021/12/11 04:15:41;;;;;;;;;;;2.60;99.90;;;1.44;100.00;94633.94;10413729;28;1940;-73
2021/12/11 04:21:05;;;;;;;;;;;2.50;99.90;;;1.38;100.00;94638.38;10413999;28;1833;-73
2021/12/11 04:26:08;;;;;;;;;;;2.50;99.90;;;1.34;100.00;94645.22;10408679;28;1868;-74
2021/12/11 04:31:11;;;;;;;;;;;2.50;99.90;;;1.36;100.00;94648.41;10411445;28;1981;-73
2021/12/11 04:36:15;;;;;;;;;;;2.50;99.90;;;1.22;100.00;94661.19;10411924;28;1901;-73
2021/12/11 04:41:19;;;;;;;;;;;2.40;99.90;;;1.10;100.00;94664.97;10404894;28;1903;-74
2021/12/11 04:46:22;;;;;;;;;;;2.30;99.90;;;1.06;100.00;94673.38;10411621;28;1859;-74
2021/12/11 04:51:29;;;;;;;;;;;2.10;99.90;;;1.05;100.00;94687.66;10414857;28;1914;-74
2021/12/11 04:56:55;;;;;;;;;;;2.10;99.90;;;1.01;100.00;94689.16;10408145;28;1832;-74
2021/12/11 05:02:09;;;;;;;;;;;2.10;99.90;;;0.97;100.00;94687.25;10411007;28;1876;-74
2021/12/11 05:07:25;;;;;;;;;;;2.00;99.90;;;0.96;100.00;94704.97;10415319;28;1845;-75
2021/12/11 05:12:34;;;;;;;;;;;2.10;99.90;;;0.95;100.00;94715.78;10413212;28;1969;-75
2021/12/11 05:17:37;;;;;;;;;;;2.00;99.90;;;0.98;100.00;94724.06;10411379;28;1865;-75
2021/12/11 05:22:40;;;;;;;;;;;2.00;99.90;;;0.85;100.00;94732.31;10416697;28;1894;-75
2021/12/11 05:27:43;;;;;;;;;;;2.00;99.90;;;0.87;100.00;94738.16;10414336;28;1832;-75
2021/12/11 05:32:46;;;;;;;;;;;2.00;99.90;;;0.86;100.00;94748.97;10402617;28;1981;-75
2021/12/11 05:37:49;;;;;;;;;;;2.00;99.90;;;0.84;100.00;94751.88;10406797;28;1945;-76
2021/12/11 05:42:53;;;;;;;;;;;1.90;99.90;;;0.83;100.00;94760.84;10407801;28;1820;-75
2021/12/11 05:47:56;;;;;;;;;;;1.90;99.90;;;0.84;100.00;94756.34;10417845;28;1830;-75
2021/12/11 05:53:00;;;;;;;;;;;1.90;99.90;;;0.82;100.00;94765.31;10406336;28;1985;-75
2021/12/11 05:58:10;;;;;;;;;;;1.90;99.90;;;0.84;100.00;94770.38;10404747;28;1835;-75
2021/12/11 06:03:13;;;;;;;;;;;1.90;99.90;;;0.79;100.00;94775.56;10402165;28;1825;-75
2021/12/11 06:08:16;;;;;;;;;;;1.90;99.90;;;0.82;100.00;94781.19;10410580;28;1859;-75
2021/12/11 06:13:20;;;;;;;;;;;1.80;99.90;;;0.77;100.00;94782.97;10410038;28;1989;-74
2021/12/11 06:18:23;;;;;;;;;;;1.90;99.90;;;0.87;100.00;94793.72;10405570;28;1894;-75
2021/12/11 06:23:27;;;;;;;;;;;1.90;99.90;;;0.90;100.00;94803.84;10405766;28;2420;-74
2021/12/11 06:28:31;;;;;;;;;;;1.90;99.90;;;0.92;100.00;94814.19;10405927;28;2194;-75
2021/12/11 06:33:34;;;;;;;;;;;2.00;99.90;;;1.02;100.00;94827.59;10406539;28;1987;-74
2021/12/11 06:38:37;;;;;;;;;;;2.00;99.90;;;1.06;100.00;94836.66;10400682;28;1893;-74
2021/12/11 06:43:40;;;;;;;;;;;2.10;99.90;;;1.14;100.00;94843.41;10398521;28;2036;-74
2021/12/11 06:48:44;;;;;;;;;;;2.20;99.90;;;1.21;100.00;94854.66;10402420;28;1956;-75
2021/12/11 06:53:47;;;;;;;;;;;2.20;99.90;;;1.24;100.00;94867.44;10408127;28;1913;-75
2021/12/11 06:58:51;;;;;;;;;;;2.30;99.90;;;1.24;100.00;94875.38;10408576;28;1856;-75
2021/12/11 07:03:56;;;;;;;;;;;2.30;99.90;;;1.28;100.00;94890.56;10407229;28;1890;-74
2021/12/11 07:09:00;;;;;;;;;;;2.30;99.90;;;1.31;100.00;94886.63;10396321;28;1893;-74
2021/12/11 07:14:03;;;;;;;;;;;2.40;99.90;;;1.37;100.00;94906.84;10407336;28;1977;-75
2021/12/11 07:19:06;;;;;;;;;;;2.40;99.90;;;1.37;100.00;94927.22;10405459;28;1887;-75
2021/12/11 07:24:10;;;;;;;;;;;2.40;99.90;;;1.39;100.00;94931.25;10400673;28;1917;-75
2021/12/11 07:29:13;;;;;;;;;;;2.40;99.90;;;1.32;100.00;94944.63;10409256;28;1875;-74
2021/12/11 07:34:16;;;;;;;;;;;2.40;99.90;;;1.44;100.00;94957.03;10404331;28;1933;-74
2021/12/11 07:39:20;;;;;;;;;;;2.50;99.90;;;1.47;100.00;94973.25;10403911;28;1918;-74
2021/12/11 07:44:23;;;;;;;;;;;2.40;99.90;;;1.38;100.00;94985.25;10403907;28;1945;-74
2021/12/11 07:49:26;;;;;;;;;;;2.40;99.90;;;1.40;100.00;95014.13;10408241;28;1913;-73
2021/12/11 07:54:31;;;;;;;;;;;2.40;99.90;;;0.88;100.00;95024.69;10397793;28;1902;-74
2021/12/11 07:59:34;;;;;;;;;;;2.10;99.90;;;0.54;100.00;95027.94;10401953;28;1882;-76
2021/12/11 08:04:37;;;;;;;;;;;1.70;99.90;;;0.47;100.00;95048.38;10404504;28;1837;-74
2021/12/11 08:09:40;;;;;;;;;;;2.00;99.90;;;0.55;100.00;95057.81;10397759;28;2112;-74
2021/12/11 08:14:44;;;;;;;;;;;1.40;99.90;;;0.55;100.00;95065.75;10406497;28;1969;-74
2021/12/11 08:19:47;;;;;;;;;;;1.50;99.90;;;0.54;100.00;95074.72;10402088;28;2135;-74
2021/12/11 08:24:50;;;;;;;;;;;1.50;99.90;;;0.47;100.00;95082.75;10397943;28;2171;-74
2021/12/11 08:29:54;;;;;;;;;;;1.50;99.90;;;0.46;100.00;95104.94;10400742;28;1881;-74
2021/12/11 08:34:57;;;;;;;;;;;1.40;99.90;;;0.62;100.00;95106.13;10402608;28;1972;-75
2021/12/11 08:40:00;;;;;;;;;;;1.50;99.90;;;0.75;100.00;95123.63;10400541;28;1968;-75
2021/12/11 08:45:06;;;;;;;;;;;1.60;99.90;;;0.80;100.00;95131.69;10405363;28;1832;-74
2021/12/11 08:50:08;;;;;;;;;;;2.20;99.90;;;0.86;100.00;95146.66;10394752;28;2261;-73
2021/12/11 08:55:11;;;;;;;;;;;1.80;99.90;;;0.79;100.00;95161.81;10411478;28;1906;-73
2021/12/11 09:00:15;;;;;;;;;;;1.80;99.90;;;0.85;100.00;95176.00;10410232;28;1820;-73
2021/12/11 09:05:18;;;;;;;;;;;1.80;99.90;;;0.96;100.00;95176.03;10402929;28;1901;-74
2021/12/11 09:10:21;;;;;;;;;;;1.80;99.90;;;0.95;100.00;95184.16;10407044;28;2059;-73
2021/12/11 09:15:25;;;;;;;;;;;1.80;99.90;;;0.94;100.00;95196.59;10409171;28;1926;-73
2021/12/11 09:20:30;;;;;;;;;;;1.90;99.90;;;1.16;100.00;95209.31;10396528;22;2011;-74
2021/12/11 09:25:34;;;;;;;;;;;2.00;99.90;;;1.16;100.00;95225.19;10370295;28;1902;-73
2021/12/11 09:30:37;;;;;;;;;;;2.10;99.90;;;0.90;100.00;95237.78;10338132;28;2077;-77
2021/12/11 09:35:40;;;;;;;;;;;2.00;99.90;;;1.11;100.00;95243.59;10332204;28;1989;-73
2021/12/11 09:40:43;;;;;;;;;;;2.00;99.90;;;1.13;100.00;95244.16;10325494;28;2011;-73
2021/12/11 09:45:46;;;;;;;;;;;2.00;99.90;;;1.14;100.00;95254.50;10330647;28;1888;-75
2021/12/11 09:50:54;;;;;;;;;;;2.10;99.90;;;1.18;100.00;95257.53;10332944;28;1878;-73
2021/12/11 09:55:57;;;;;;;;;;;2.00;99.90;;;1.16;100.00;95260.41;10323461;28;1933;-75
2021/12/11 10:01:02;;;;;;;;;;;2.10;99.90;;;1.34;100.00;95254.22;10328900;28;1892;-73
2021/12/11 10:06:12;;;;;;;;;;;2.10;99.90;;;1.42;100.00;95266.31;10334964;28;1978;-74
2021/12/11 10:11:15;;;;;;;;;;;2.20;99.90;;;1.43;100.00;95267.94;10323577;28;1817;-71
2021/12/11 10:16:18;;;;;;;;;;;2.30;99.90;;;1.47;100.00;95277.03;10315333;28;1942;-73
2021/12/11 10:21:21;;;;;;;;;;;2.30;99.90;;;1.67;100.00;95289.97;10324099;28;2313;-73
2021/12/11 10:26:25;;;;;;;;;;;2.40;99.90;;;1.76;100.00;95288.56;10319835;28;1947;-74
2021/12/11 10:31:28;;;;;;;;;;;2.50;99.90;;;1.88;100.00;95294.69;10336668;28;1918;-73
2021/12/11 10:36:31;;;;;;;;;;;2.60;99.90;;;1.78;100.00;95312.97;10332951;28;1973;-73
2021/12/11 10:41:35;;;;;;;;;;;2.60;99.90;;;1.81;100.00;95328.44;10329894;28;1817;-74
2021/12/11 10:46:38;;;;;;;;;;;2.70;99.90;;;1.65;100.00;95334.41;10334601;28;1915;-73
2021/12/11 10:51:43;;;;;;;;;;;2.70;99.90;;;1.51;100.00;95345.22;10327782;28;1924;-74
2021/12/11 10:56:46;;;;;;;;;;;2.60;99.90;;;1.40;100.00;95347.81;10332768;28;2142;-73
2021/12/11 11:01:49;;;;;;;;;;;2.40;99.90;;;1.36;100.00;95358.06;10330957;28;2213;-73
2021/12/11 11:06:52;;;;;;;;;;;2.30;99.90;;;1.38;100.00;95369.25;10330013;28;2181;-73
2021/12/11 11:11:55;;;;;;;;;;;2.40;99.90;;;1.23;100.00;95379.44;10326659;28;2192;-73
2021/12/11 11:16:58;;;;;;;;;;;2.20;99.90;;;1.19;100.00;95384.38;10330243;28;2213;-73
2021/12/11 11:22:01;;;;;;;;;;;2.20;99.90;;;1.24;100.00;95399.59;10342377;28;1959;-71
2021/12/11 11:27:04;;;;;;;;;;;2.10;99.90;;;1.23;100.00;95413.88;10343248;28;1884;-71
2021/12/11 11:32:07;;;;;;;;;;;2.20;99.90;;;1.28;100.00;95417.47;10339666;28;1864;-70
2021/12/11 11:37:10;;;;;;;;;;;2.30;99.90;;;1.25;100.00;95419.75;10338116;28;1985;-70
2021/12/11 11:42:13;;;;;;;;;;;2.20;99.90;;;1.53;100.00;95416.53;10321646;28;1929;-71
2021/12/11 11:47:16;;;;;;;;;;;2.30;99.90;;;1.61;100.00;95435.53;10319547;28;2107;-70
2021/12/11 11:52:18;;;;;;;;;;;2.40;99.90;;;1.88;100.00;95437.81;10319340;28;2284;-72
2021/12/11 11:57:21;;;;;;;;;;;2.60;99.90;;;1.79;100.00;95441.81;10325181;28;1946;-73
2021/12/11 12:02:24;;;;;;;;;;;2.70;99.90;;;1.95;100.00;95445.66;10322053;28;1931;-71
2021/12/11 12:07:28;;;;;;;;;;;2.80;99.90;;;1.71;100.00;95456.19;10327474;28;1841;-71
2021/12/11 12:12:31;;;;;;;;;;;2.80;99.90;;;1.66;100.00;95463.22;10315241;28;1944;-71
2021/12/11 12:17:35;;;;;;;;;;;2.70;99.90;;;1.57;100.00;95468.00;10326595;28;1909;-70
2021/12/11 12:22:38;;;;;;;;;;;2.60;99.90;;;1.75;100.00;95477.75;10329840;28;2050;-73
2021/12/11 12:27:44;;;;;;;;;;;2.60;99.90;;;1.83;100.00;95486.19;10329821;28;1933;-72
2021/12/11 12:32:48;;;;;;;;;;;2.70;99.90;;;1.81;100.00;95485.59;10324631;28;1969;-73
2021/12/11 12:38:01;;;;;;;;;;;2.80;99.90;;;1.87;100.00;95491.84;10335204;28;1931;-72
2021/12/11 12:43:10;;;;;;;;;;;2.90;99.90;;;1.84;100.00;95505.53;10330351;28;1896;-70
2021/12/11 12:48:13;;;;;;;;;;;2.80;99.90;;;1.80;100.00;95512.34;10323600;28;2285;-71
2021/12/11 12:53:16;;;;;;;;;;;2.80;99.90;;;1.74;100.00;95519.34;10327319;28;1983;-72
2021/12/11 12:58:19;;;;;;;;;;;2.80;99.90;;;1.67;100.00;95531.06;10343212;28;1919;-72
2021/12/11 13:03:22;;;;;;;;;;;2.70;99.90;;;1.49;100.00;95530.06;10330512;28;1865;-71
2021/12/11 13:08:24;;;;;;;;;;;2.60;99.90;;;1.55;100.00;95549.56;10340126;28;1841;-71
2021/12/11 13:13:27;;;;;;;;;;;2.50;99.90;;;1.75;100.00;95554.59;10326189;28;1910;-72
2021/12/11 13:18:30;;;;;;;;;;;2.60;99.90;;;1.88;100.00;95565.84;10324769;28;2313;-71
2021/12/11 13:23:33;;;;;;;;;;;2.90;99.90;;;1.81;100.00;95572.25;10322555;28;1978;-72
2021/12/11 13:28:36;;;;;;;;;;;2.70;99.90;;;1.82;100.00;95587.94;10329510;28;1766;-71
2021/12/11 13:33:39;;;;;;;;;;;2.70;99.90;;;1.84;100.00;95595.66;10335381;28;1934;-71
2021/12/11 13:38:43;;;;;;;;;;;2.90;99.90;;;1.89;100.00;95606.41;10328874;28;1856;-70
2021/12/11 13:43:46;;;;;;;;;;;2.80;99.90;;;1.75;100.00;95620.84;10330245;28;1865;-71
2021/12/11 13:48:48;;;;;;;;;;;2.80;99.90;;;1.67;100.00;95629.09;10338841;28;1829;-70
2021/12/11 13:53:51;;;;;;;;;;;2.70;99.90;;;1.54;100.00;95632.72;10319109;28;2021;-70
2021/12/11 13:58:54;;;;;;;;;;;2.50;99.90;;;1.46;100.00;95647.03;10331767;28;1898;-72
2021/12/11 14:03:57;;;;;;;;;;;2.50;99.90;;;1.48;100.00;95654.78;10328978;28;1896;-70
2021/12/11 14:09:06;;;;;;;;;;;2.50;99.90;;;1.53;100.00;95660.25;10327352;28;1880;-69
2021/12/11 14:14:09;;;;;;;;;;;2.60;99.90;;;1.42;100.00;95666.25;10327294;28;1907;-72
2021/12/11 14:19:12;;;;;;;;;;;2.50;99.90;;;1.45;100.00;95679.03;10325313;28;1912;-71
2021/12/11 14:24:14;;;;;;;;;;;2.40;99.90;;;1.44;100.00;95682.72;10324097;28;1822;-72
2021/12/11 14:29:17;;;;;;;;;;;2.40;99.90;;;1.45;100.00;95690.44;10325407;28;1780;-71
2021/12/11 14:34:20;;;;;;;;;;;2.40;99.90;;;1.38;100.00;95702.94;10322254;28;1975;-72
2021/12/11 14:39:25;;;;;;;;;;;2.30;99.90;;;1.24;100.00;95715.50;10329528;28;1865;-71
2021/12/11 14:44:27;;;;;;;;;;;2.30;99.90;;;1.19;100.00;95725.91;10321931;28;1869;-71
2021/12/11 14:49:30;;;;;;;;;;;2.20;99.90;;;1.23;100.00;95734.25;10326218;28;1881;-72
2021/12/11 14:54:34;;;;;;;;;;;2.10;99.90;;;1.14;100.00;95743.47;10323498;28;2008;-71
2021/12/11 14:59:37;;;;;;;;;;;2.20;99.90;;;1.11;100.00;95742.06;10326999;28;1829;-71
2021/12/11 15:04:40;;;;;;;;;;;2.20;99.90;;;1.10;100.00;95758.19;10324957;28;1889;-72
2021/12/11 15:09:43;;;;;;;;;;;2.10;99.90;;;1.07;100.00;95767.34;10322939;28;1904;-72
2021/12/11 15:14:46;;;;;;;;;;;2.10;99.90;;;1.05;100.00;95777.34;10330260;28;2093;-71
2021/12/11 15:19:49;;;;;;;;;;;2.10;99.90;;;1.05;100.00;95790.59;10328084;28;1911;-71
2021/12/11 15:24:53;;;;;;;;;;;2.10;99.90;;;1.00;100.00;95793.88;10334380;28;1869;-71
2021/12/11 15:29:56;;;;;;;;;;;2.00;99.90;;;0.97;100.00;95804.09;10327455;28;1861;-70
2021/12/11 15:35:00;;;;;;;;;;;2.00;99.90;;;0.90;100.00;95809.41;10324697;28;2328;-71
2021/12/11 15:40:03;;;;;;;;;;;1.90;99.90;;;0.86;100.00;95824.06;10380752;22;2115;-71
2021/12/11 15:45:06;;;;;;;;;;;1.90;99.90;;;0.81;100.00;95821.25;10451264;28;1891;-72
2021/12/11 15:50:09;;;;;;;;;;;2.00;99.90;;;0.74;100.00;95829.22;10455101;28;1764;-72
2021/12/11 15:55:14;;;;;;;;;;;1.80;99.90;;;0.73;100.00;95840.84;10443618;28;1918;-72
2021/12/11 16:00:16;;;;;;;;;;;1.80;99.90;;;0.68;100.00;95845.94;10446656;28;1901;-71
2021/12/11 16:05:20;;;;;;;;;;;1.70;99.90;;;0.75;100.00;95854.66;10437300;28;1982;-72
2021/12/11 16:10:23;;;;;;;;;;;1.70;99.90;;;0.75;100.00;95859.94;10431567;28;1944;-73
2021/12/11 16:15:26;;;;;;;;;;;1.80;99.90;;;0.78;100.00;95875.41;10432789;28;1973;-71
2021/12/11 16:20:29;;;;;;;;;;;1.80;99.90;;;0.78;100.00;95885.19;10437531;28;1915;-71
2021/12/11 16:25:32;;;;;;;;;;;1.80;99.90;;;0.76;100.00;95890.69;10438591;28;1934;-71
2021/12/11 16:30:36;;;;;;;;;;;1.80;99.90;;;0.84;100.00;95900.22;10436175;28;1956;-72
2021/12/11 16:35:45;;;;;;;;;;;1.80;99.90;;;0.85;100.00;95904.50;10445043;28;1969;-70
2021/12/11 16:40:48;;;;;;;;;;;1.90;99.90;;;0.79;100.00;95914.09;10442845;28;2028;-71
2021/12/11 16:45:51;;;;;;;;;;;1.90;99.90;;;0.89;100.00;95928.69;10446497;28;1898;-71
2021/12/11 16:50:54;;;;;;;;;;;1.90;99.90;;;0.92;100.00;95931.75;10446235;28;2006;-72
2021/12/11 16:56:17;;;;;;;;;;;1.90;99.90;;;0.91;100.00;95943.38;10448674;28;2015;-72
2021/12/11 17:01:40;;;;;;;;;;;1.90;99.90;;;0.82;100.00;95949.88;10440566;28;1880;-71
2021/12/11 17:06:43;;;;;;;;;;;1.90;99.90;;;0.81;100.00;95957.03;10446018;28;1785;-72
2021/12/11 17:11:46;;;;;;;;;;;1.90;99.90;;;0.89;100.00;95969.25;10449504;28;1859;-71
2021/12/11 17:16:49;;;;;;;;;;;1.80;99.90;;;0.80;100.00;95967.81;10445832;28;1969;-72
2021/12/11 17:21:53;;;;;;;;;;;1.90;99.90;;;0.89;100.00;95982.47;10445423;28;1904;-72
2021/12/11 17:26:56;;;;;;;;;;;1.80;99.90;;;0.89;100.00;96000.16;10444464;28;1822;-71
2021/12/11 17:31:59;;;;;;;;;;;1.90;99.90;;;0.82;100.00;96002.81;10445655;28;1981;-70
2021/12/11 17:37:02;;;;;;;;;;;1.90;99.90;;;0.79;100.00;96008.53;10443489;28;2001;-72
2021/12/11 17:42:07;;;;;;;;;;;1.80;99.90;;;0.78;100.00;96012.22;10443686;28;1930;-72
2021/12/11 17:47:10;;;;;;;;;;;1.90;99.90;;;0.77;100.00;96021.97;10444607;28;1906;-72
2021/12/11 17:52:14;;;;;;;;;;;1.80;99.90;;;0.79;100.00;96024.41;10444801;28;1915;-73
2021/12/11 17:57:17;;;;;;;;;;;1.80;99.90;;;0.79;100.00;96035.00;10453221;28;1985;-72
2021/12/11 18:02:20;;;;;;;;;;;1.90;99.90;;;0.81;100.00;96040.88;10448903;28;2025;-70
2021/12/11 18:07:24;;;;;;;;;;;1.90;99.90;;;0.84;100.00;96045.78;10460400;28;1843;-70
2021/12/11 18:12:31;;;;;;;;;;;1.80;99.90;;;0.79;100.00;96069.41;10451397;28;1876;-70
2021/12/11 18:17:34;;;;;;;;;;;1.90;99.90;;;0.81;100.00;96067.34;10463465;28;1977;-70
2021/12/11 18:22:39;;;;;;;;;;;1.80;99.90;;;0.82;100.00;96071.63;10451697;28;1883;-72
2021/12/11 18:27:42;;;;;;;;;;;1.90;99.90;;;0.92;100.00;96077.31;10444079;28;2339;-71
2021/12/11 18:32:45;;;;;;;;;;;1.90;99.90;;;0.80;100.00;96084.25;10450596;28;1883;-71
2021/12/11 18:37:48;;;;;;;;;;;1.90;99.90;;;0.72;100.00;96076.53;10436113;28;1984;-71
2021/12/11 18:42:51;;;;;;;;;;;1.90;99.90;;;0.80;100.00;96078.97;10434158;28;1843;-71
2021/12/11 18:47:54;;;;;;;;;;;1.90;99.90;;;0.82;100.00;96074.28;10435002;28;1813;-72
2021/12/11 18:52:57;;;;;;;;;;;1.90;99.90;;;0.81;100.00;96086.69;10425182;28;3301;-71
2021/12/11 18:58:00;;;;;;;;;;;2.00;99.90;;;0.84;100.00;96090.78;10431038;28;2067;-72
2021/12/11 19:03:03;;;;;;;;;;;2.00;99.90;;;0.85;100.00;96100.34;10431460;28;1829;-72
2021/12/11 19:08:06;;;;;;;;;;;2.10;99.90;;;0.83;100.00;96102.38;10431253;28;1869;-71
2021/12/11 19:13:09;;;;;;;;;;;2.00;99.90;;;0.74;100.00;96100.94;10438629;28;1862;-71
2021/12/11 19:18:12;;;;;;;;;;;2.00;99.90;;;0.73;100.00;96104.63;10440725;28;1942;-71
2021/12/11 19:23:15;;;;;;;;;;;1.90;99.90;;;0.60;100.00;96115.19;10435965;28;2028;-69
2021/12/11 19:28:20;;;;;;;;;;;1.90;99.90;;;0.46;100.00;96117.84;10436163;28;1863;-71
2021/12/11 19:33:23;;;;;;;;;;;1.80;99.90;;;0.34;100.00;96124.72;10434712;28;1974;-71
2021/12/11 19:38:26;;;;;;;;;;;1.70;99.90;;;0.26;100.00;96140.78;10435192;28;2307;-72
2021/12/11 19:43:30;;;;;;;;;;;1.60;99.90;;;0.09;100.00;96129.75;10433104;28;1842;-71
2021/12/11 19:48:33;;;;;;;;;;;1.50;99.90;;;-0.02;100.00;96138.25;10445331;28;1780;-71
2021/12/11 19:53:37;;;;;;;;;;;1.40;99.90;;;-0.19;100.00;96134.31;10433125;28;1843;-70
2021/12/11 19:59:00;;;;;;;;;;;1.30;99.90;;;-0.31;100.00;96149.94;10435745;28;1922;-70
2021/12/11 20:04:03;;;;;;;;;;;1.20;99.90;;;-0.37;100.00;96161.28;10433613;28;1805;-70
2021/12/11 20:09:06;;;;;;;;;;;1.10;99.90;;;-0.43;100.00;96167.34;10436019;28;1844;-71
2021/12/11 20:14:09;;;;;;;;;;;1.00;99.90;;;-0.47;100.00;96171.38;10441813;28;1870;-71
2021/12/11 20:19:12;;;;;;;;;;;1.00;99.90;;;-0.56;100.00;96179.47;10440801;28;1909;-71
2021/12/11 20:24:15;;;;;;;;;;;0.90;99.90;;;-0.58;100.00;96184.09;10437406;28;1915;-71
2021/12/11 20:29:18;;;;;;;;;;;0.80;99.90;;;-0.64;100.00;96192.78;10442495;28;2369;-71
2021/12/11 20:34:22;;;;;;;;;;;0.80;99.90;;;-0.76;100.00;96198.81;10452264;28;1836;-70
2021/12/11 20:39:25;;;;;;;;;;;0.80;99.90;;;-0.80;100.00;96208.94;10449999;28;1971;-72
2021/12/11 20:44:30;;;;;;;;;;;0.70;99.90;;;-0.70;100.00;96213.88;10450240;28;1819;-72
2021/12/11 20:49:33;;;;;;;;;;;0.60;99.90;;;-0.29;100.00;96213.94;10455187;28;1918;-71
2021/12/11 20:54:37;;;;;;;;;;;0.90;99.90;;;0.04;100.00;96226.50;10457306;28;1851;-71
2021/12/11 20:59:41;;;;;;;;;;;1.00;99.90;;;0.22;100.00;96229.44;10455878;28;2044;-71
2021/12/11 21:04:44;;;;;;;;;;;1.20;99.90;;;0.41;100.00;96233.97;10455149;28;1881;-71
2021/12/11 21:09:47;;;;;;;;;;;1.40;99.90;;;0.48;100.00;96234.81;10454600;28;2229;-71
2021/12/11 21:14:50;;;;;;;;;;;1.50;99.90;;;0.54;100.00;96234.03;10452550;28;1975;-72
2021/12/11 21:19:53;;;;;;;;;;;1.60;99.90;;;0.55;100.00;96240.13;10453146;28;1897;-72
2021/12/11 21:24:56;;;;;;;;;;;1.60;99.90;;;0.29;100.00;96240.03;10446781;28;2038;-72
2021/12/11 21:30:00;;;;;;;;;;;1.60;99.90;;;-0.06;100.00;96248.84;10445203;28;1892;-71
2021/12/11 21:35:04;;;;;;;;;;;1.50;99.90;;;-0.23;100.00;96255.44;10439972;28;1906;-71
2021/12/11 21:40:07;;;;;;;;;;;1.20;99.90;;;-0.25;100.00;96272.47;10447074;23;1960;-69
2021/12/11 21:45:10;;;;;;;;;;;1.10;99.90;;;-0.35;100.00;96280.75;10376922;28;1826;-71
2021/12/11 21:50:13;;;;;;;;;;;1.00;99.90;;;-0.41;100.00;96277.06;10399910;28;1831;-70
2021/12/11 21:55:16;;;;;;;;;;;1.00;99.90;;;-0.47;100.00;96287.59;10405970;28;1910;-69
2021/12/11 22:00:19;;;;;;;;;;;0.90;99.90;;;-0.53;100.00;96291.81;10415031;28;1902;-71
2021/12/11 22:05:23;;;;;;;;;;;0.80;99.90;;;-0.57;100.00;96299.31;10369759;28;1811;-71
2021/12/11 22:10:26;;;;;;;;;;;0.80;99.90;;;-0.72;100.00;96306.47;10375741;28;2546;-69
2021/12/11 22:15:30;;;;;;;;;;;0.70;99.90;;;-0.79;100.00;96305.59;10379805;28;1906;-71
2021/12/11 22:20:32;;;;;;;;;;;0.60;99.90;;;-0.83;100.00;96309.63;10371754;28;1934;-71
2021/12/11 22:25:54;;;;;;;;;;;0.60;99.90;;;-0.86;100.00;96299.44;10363055;28;1842;-68
2021/12/11 22:30:57;;;;;;;;;;;0.50;99.90;;;-0.91;100.00;96312.38;10367458;28;2007;-70
2021/12/11 22:36:00;;;;;;;;;;;0.50;99.90;;;-0.89;100.00;96299.81;10366074;28;1910;-69
2021/12/11 22:41:03;;;;;;;;;;;0.50;99.90;;;-0.73;100.00;96299.56;10376245;28;2315;-70
2021/12/11 22:46:07;;;;;;;;;;;0.50;99.90;;;-0.58;100.00;96302.94;10371483;28;1921;-70
2021/12/11 22:51:10;;;;;;;;;;;0.60;99.90;;;-0.58;100.00;96313.50;10367617;28;1783;-69
2021/12/11 22:56:13;;;;;;;;;;;0.70;99.90;;;-0.52;100.00;96316.38;10364866;28;1991;-70
2021/12/11 23:01:16;;;;;;;;;;;0.70;99.90;;;-0.27;100.00;96312.31;10379582;28;2009;-68
2021/12/11 23:06:19;;;;;;;;;;;0.80;99.90;;;-0.10;100.00;96305.72;10374105;28;1910;-70
2021/12/11 23:11:22;;;;;;;;;;;1.00;99.90;;;0.05;100.00;96310.06;10377605;28;1822;-70
2021/12/11 23:16:25;;;;;;;;;;;1.10;99.90;;;0.12;100.00;96308.28;10374914;28;1914;-69
2021/12/11 23:21:28;;;;;;;;;;;1.20;99.90;;;0.19;100.00;96309.13;10384893;28;2354;-70
2021/12/11 23:26:33;;;;;;;;;;;1.30;99.90;;;0.12;100.00;96310.94;10371325;28;1922;-70
2021/12/11 23:31:36;;;;;;;;;;;1.30;99.90;;;0.20;100.00;96310.78;10380799;28;2214;-71